Time;durP1;ratioP1;P1;durP2;ratioP2;P2;SDS_P1;SDS_P2;PMS_P1;PMS_P2;Temp;Humidity;BMP_temperature;BMP_pressure;BME280_temperature;BME280_humidity;BME280_pressure;Samples;Min_cycle;Max_cycle;Signal;HPM_P1;HPM_P2
2021/08/25 00:00:43;;;;;;;9.73;3.83;;;;;;;12.67;89.12;101079.44;5018064;28;20084;-67
2021/08/25 00:03:10;;;;;;;7.65;4.10;;;;;;;12.59;89.18;101066.50;5018061;28;20406;-67
2021/08/25 00:05:37;;;;;;;8.10;3.55;;;;;;;12.62;88.99;101072.56;5016958;28;20044;-70
2021/08/25 00:08:04;;;;;;;8.82;3.13;;;;;;;12.58;89.29;101065.63;5033464;28;20070;-68
2021/08/25 00:10:32;;;;;;;7.53;3.25;;;;;;;12.60;89.19;101069.06;5017862;28;20141;-67
2021/08/25 00:13:00;;;;;;;6.75;3.13;;;;;;;12.66;89.02;101067.91;5018106;28;20092;-69
2021/08/25 00:15:27;;;;;;;8.02;3.17;;;;;;;12.59;89.14;101064.69;5016688;28;20060;-70
2021/08/25 00:17:53;;;;;;;10.20;3.65;;;;;;;12.55;89.33;101070.28;5018071;28;20414;-70
2021/08/25 00:20:20;;;;;;;12.13;3.95;;;;;;;12.46;89.68;101068.97;5017871;28;20117;-68
2021/08/25 00:22:47;;;;;;;7.13;2.75;;;;;;;12.45;89.94;101061.91;5019782;28;20072;-69
2021/08/25 00:25:14;;;;;;;5.78;2.83;;;;;;;12.42;89.88;101065.59;5017893;28;20050;-70
2021/08/25 00:27:41;;;;;;;8.85;3.38;;;;;;;12.33;90.53;101061.59;5017764;28;20391;-66
2021/08/25 00:30:08;;;;;;;7.03;3.38;;;;;;;12.30;90.83;101067.13;5017447;28;20076;-68
2021/08/25 00:32:35;;;;;;;14.40;4.35;;;;;;;12.30;91.22;101069.81;5016332;28;20052;-67
2021/08/25 00:35:02;;;;;;;11.73;3.17;;;;;;;12.35;90.83;101058.84;5016503;28;20462;-67
2021/08/25 00:37:29;;;;;;;6.55;3.35;;;;;;;12.29;90.89;101064.53;5017479;28;20104;-67
2021/08/25 00:39:56;;;;;;;6.07;3.15;;;;;;;12.34;91.02;101049.09;5017435;28;20042;-67
2021/08/25 00:42:22;;;;;;;9.45;3.72;;;;;;;12.30;90.99;101051.06;5016332;28;20049;-67
2021/08/25 00:44:49;;;;;;;6.57;2.92;;;;;;;12.20;91.25;101048.03;5017491;28;20057;-67
2021/08/25 00:47:16;;;;;;;7.68;3.15;;;;;;;12.19;91.45;101056.13;5017402;28;20041;-67
2021/08/25 00:49:46;;;;;;;7.97;3.45;;;;;;;12.24;91.04;101042.53;5017472;28;20080;-67
2021/08/25 00:52:13;;;;;;;6.28;2.78;;;;;;;12.19;91.64;101053.44;5016093;28;20045;-67
2021/08/25 00:54:40;;;;;;;7.35;3.15;;;;;;;12.15;91.34;101043.88;5032519;28;20509;-67
2021/08/25 00:57:08;;;;;;;5.13;2.72;;;;;;;12.13;91.33;101041.28;5032319;28;20124;-67
2021/08/25 00:59:35;;;;;;;5.03;3.30;;;;;;;12.15;91.34;101042.06;5015816;28;20049;-67
2021/08/25 01:02:02;;;;;;;6.40;3.13;;;;;;;12.18;91.48;101035.66;5015917;28;20052;-67
2021/08/25 01:04:41;;;;;;;7.15;3.53;;;;;;;12.14;91.72;101037.66;5016983;28;20100;-67
2021/08/25 01:07:12;;;;;;;11.00;3.53;;;;;;;12.15;92.00;101041.19;5016853;28;20042;-67
2021/08/25 01:09:39;;;;;;;7.80;3.30;;;;;;;12.06;92.41;101038.06;5017013;28;20042;-67
2021/08/25 01:12:07;;;;;;;11.65;3.95;;;;;;;11.98;92.36;101032.22;5016637;28;20076;-67
2021/08/25 01:14:35;;;;;;;9.30;3.65;;;;;;;11.98;92.68;101034.03;5016852;28;20455;-67
2021/08/25 01:17:04;;;;;;;7.15;3.53;;;;;;;11.94;92.66;101030.66;5016669;28;20457;-67
2021/08/25 01:19:46;;;;;;;7.90;3.88;;;;;;;11.89;92.99;101032.72;5016619;28;20096;-67
2021/08/25 01:22:18;;;;;;;9.23;3.55;;;;;;;11.86;92.91;101027.50;5016557;28;20108;-67
2021/08/25 01:24:50;;;;;;;8.32;3.70;;;;;;;11.91;92.84;101038.84;5016558;28;20103;-67
2021/08/25 01:27:19;;;;;;;7.82;3.10;;;;;;;11.85;93.22;101033.81;5016488;28;20054;-67
2021/08/25 01:29:47;;;;;;;5.90;3.38;;;;;;;11.77;93.01;101026.19;5016614;28;20382;-67
2021/08/25 01:32:14;;;;;;;5.35;3.03;;;;;;;11.76;93.12;101025.31;5015339;28;20152;-67
2021/08/25 01:34:58;;;;;;;5.95;3.55;;;;;;;11.77;93.24;101032.41;5016605;28;20042;-67
2021/08/25 01:37:27;;;;;;;8.52;3.92;;;;;;;11.72;92.99;101025.56;5016547;28;20052;-67
2021/08/25 01:39:55;;;;;;;6.95;3.50;;;;;;;11.74;93.01;101026.34;5016365;28;20096;-67
2021/08/25 01:42:22;;;;;;;8.45;3.78;;;;;;;11.69;93.29;101023.91;5016317;28;20049;-67
2021/08/25 01:44:49;;;;;;;7.15;3.55;;;;;;;11.67;93.26;101020.47;5016203;28;20045;-67
2021/08/25 01:47:17;;;;;;;10.30;3.83;;;;;;;11.69;93.39;101018.56;5016324;28;20439;-67
2021/08/25 01:49:45;;;;;;;6.97;3.40;;;;;;;11.68;93.45;101017.69;5016197;28;20053;-67
2021/08/25 01:52:13;;;;;;;9.05;3.92;;;;;;;11.62;93.68;101017.16;5016059;28;20058;-67
2021/08/25 01:54:40;;;;;;;6.70;3.70;;;;;;;11.67;93.30;101010.63;5016007;28;20324;-66
2021/08/25 01:57:08;;;;;;;7.88;3.90;;;;;;;11.61;93.64;101010.94;5016228;28;20053;-67
2021/08/25 01:59:36;;;;;;;5.63;3.60;;;;;;;11.52;93.89;100995.38;5014889;28;20447;-67
2021/08/25 02:02:04;;;;;;;7.47;3.92;;;;;;;11.61;93.65;101004.75;5014794;28;20128;-67
2021/08/25 02:04:32;;;;;;;7.68;3.95;;;;;;;11.61;93.42;101004.75;5015837;28;20046;-67
2021/08/25 02:06:59;;;;;;;5.10;3.63;;;;;;;11.52;93.68;100998.94;5015760;28;20048;-67
2021/08/25 02:09:25;;;;;;;8.00;3.65;;;;;;;11.52;93.90;101001.59;5031526;28;20399;-67
2021/08/25 02:11:52;;;;;;;7.88;3.33;;;;;;;11.48;93.87;100999.16;5015902;28;20462;-67
2021/08/25 02:14:19;;;;;;;6.28;3.63;;;;;;;11.50;93.38;101003.47;5031281;28;20041;-67
2021/08/25 02:16:46;;;;;;;8.05;3.58;;;;;;;11.46;93.54;100985.88;5014804;28;20042;-67
2021/08/25 02:19:13;;;;;;;6.85;3.47;;;;;;;11.44;93.82;100992.25;5015758;28;20316;-67
2021/08/25 02:21:39;;;;;;;5.68;3.42;;;;;;;11.45;93.39;100991.28;5027251;28;20049;-67
2021/08/25 02:24:07;;;;;;;8.95;4.03;;;;;;;11.40;94.34;100991.53;5015852;28;20489;-67
2021/08/25 02:26:33;;;;;;;8.48;3.67;;;;;;;11.40;93.87;100999.56;5015682;28;20049;-67
2021/08/25 02:29:00;;;;;;;13.65;3.75;;;;;;;11.39;94.10;100990.66;5014329;28;20050;-66
2021/08/25 02:31:27;;;;;;;6.78;3.47;;;;;;;11.33;94.19;100995.47;5014496;28;20052;-66
2021/08/25 02:33:54;;;;;;;5.70;3.53;;;;;;;11.28;94.67;100990.38;5014657;28;20513;-66
2021/08/25 02:36:21;;;;;;;7.18;4.28;;;;;;;11.25;94.63;100993.16;5015678;28;20050;-66
2021/08/25 02:38:48;;;;;;;9.45;4.38;;;;;;;11.26;94.76;100986.88;5015491;28;20050;-66
2021/08/25 02:41:17;;;;;;;6.82;3.85;;;;;;;11.25;94.77;100993.16;5015264;28;20336;-67
2021/08/25 02:43:44;;;;;;;9.88;3.85;;;;;;;11.27;94.69;100981.47;5015400;28;20045;-67
2021/08/25 02:46:11;;;;;;;7.82;3.88;;;;;;;11.10;95.15;100979.66;5015343;28;20446;-66
2021/08/25 02:48:39;;;;;;;7.20;3.80;;;;;;;11.11;95.31;100976.03;5015339;28;20077;-66
2021/08/25 02:51:06;;;;;;;7.18;3.70;;;;;;;11.09;95.41;100971.69;5015379;28;20102;-66
2021/08/25 02:53:33;;;;;;;9.57;4.40;;;;;;;11.12;95.61;100990.25;5015260;28;20046;-66
2021/08/25 02:55:59;;;;;;;7.25;4.13;;;;;;;11.11;95.32;100972.50;5016852;28;20447;-66
2021/08/25 02:58:26;;;;;;;8.32;3.83;;;;;;;11.12;95.24;100980.44;5019309;28;20080;-66
2021/08/25 03:00:54;;;;;;;8.43;3.97;;;;;;;11.00;95.16;100948.97;5019233;28;20046;-66
2021/08/25 03:03:22;;;;;;;7.70;3.78;;;;;;;11.10;94.99;100966.28;5018859;28;20439;-66
2021/08/25 03:05:49;;;;;;;6.93;4.20;;;;;;;11.18;94.39;100967.72;5019109;28;20045;-66
2021/08/25 03:08:16;;;;;;;7.75;3.53;;;;;;;11.03;95.30;100954.19;5019169;28;20045;-67
2021/08/25 03:10:43;;;;;;;7.38;3.60;;;;;;;11.08;95.65;100961.97;5018859;28;20504;-66
2021/08/25 03:13:10;;;;;;;7.13;3.83;;;;;;;11.03;95.66;100962.19;5018065;28;20105;-66
2021/08/25 03:15:37;;;;;;;8.02;4.00;;;;;;;11.02;95.23;100963.16;5019039;28;20073;-66
2021/08/25 03:18:05;;;;;;;7.78;3.75;;;;;;;10.96;96.09;100955.44;5018965;28;20534;-67
2021/08/25 03:20:32;;;;;;;7.28;3.90;;;;;;;10.96;95.71;100964.28;5017810;28;20038;-66
2021/08/25 03:22:59;;;;;;;7.38;3.75;;;;;;;10.99;95.63;100958.81;5018759;28;20056;-66
2021/08/25 03:25:26;;;;;;;7.03;4.40;;;;;;;10.97;95.90;100957.16;5018812;28;20123;-66
2021/08/25 03:27:52;;;;;;;7.90;4.40;;;;;;;10.96;96.26;100955.44;5017834;28;20119;-67
2021/08/25 03:30:20;;;;;;;10.82;4.80;;;;;;;10.99;95.55;100950.81;5018684;28;20042;-67
2021/08/25 03:32:47;;;;;;;10.32;4.57;;;;;;;10.95;96.12;100959.91;5017694;28;20100;-66
2021/08/25 03:35:14;;;;;;;9.88;5.25;;;;;;;10.88;96.35;100958.47;5018570;28;20129;-67
2021/08/25 03:37:41;;;;;;;7.82;4.78;;;;;;;10.93;96.47;100955.56;5018602;28;20050;-67
2021/08/25 03:40:08;;;;;;;6.05;3.90;;;;;;;10.91;96.30;100955.66;5018346;28;20049;-67
2021/08/25 03:42:35;;;;;;;9.13;4.20;;;;;;;10.89;96.07;100949.53;5018523;28;20049;-67
2021/08/25 03:45:03;;;;;;;10.60;4.68;;;;;;;10.92;95.90;100957.41;5017236;28;20049;-67
2021/08/25 03:47:31;;;;;;;9.70;4.80;;;;;;;10.94;95.72;100954.63;4998891;28;20042;-67
2021/08/25 03:49:59;;;;;;;7.57;4.60;;;;;;;10.89;96.03;100952.19;4998870;28;20042;-67
2021/08/25 03:52:26;;;;;;;8.63;4.32;;;;;;;10.86;96.10;100947.88;5018075;28;20111;-67
2021/08/25 03:54:52;;;;;;;8.18;4.88;;;;;;;10.84;96.30;100944.41;5018515;28;20050;-67
2021/08/25 03:57:19;;;;;;;7.72;5.18;;;;;;;10.82;96.34;100953.44;5049885;28;20137;-67
2021/08/25 03:59:46;;;;;;;9.38;5.35;;;;;;;10.73;96.61;100936.06;5017101;28;20050;-67
2021/08/25 04:02:13;;;;;;;13.45;5.63;;;;;;;10.78;96.54;100943.88;5016721;28;20061;-67
2021/08/25 04:04:40;;;;;;;10.52;5.22;;;;;;;10.78;96.28;100942.03;5018724;28;20042;-67
2021/08/25 04:07:06;;;;;;;11.95;4.65;;;;;;;10.75;95.92;100941.34;5049646;28;20100;-67
2021/08/25 04:09:33;;;;;;;10.25;4.82;;;;;;;10.78;96.09;100944.72;5018030;28;20042;-67
2021/08/25 04:12:00;;;;;;;10.95;5.18;;;;;;;10.78;96.14;100947.38;5013320;28;20061;-67
2021/08/25 04:14:27;;;;;;;8.07;4.72;;;;;;;10.75;96.34;100939.53;4997375;28;20055;-67
2021/08/25 04:16:53;;;;;;;8.40;5.35;;;;;;;10.74;96.15;100943.16;5013436;28;20050;-67
2021/08/25 04:19:20;;;;;;;8.70;4.78;;;;;;;10.63;96.36;100933.00;5017662;28;20054;-67
2021/08/25 04:21:47;;;;;;;11.70;5.32;;;;;;;10.70;96.19;100942.44;5016730;28;20315;-67
2021/08/25 04:24:14;;;;;;;8.65;4.55;;;;;;;10.66;95.83;100939.97;5017319;28;20669;-67
2021/08/25 04:26:41;;;;;;;11.15;4.90;;;;;;;10.60;95.72;100927.78;5017068;28;20088;-67
2021/08/25 04:29:07;;;;;;;11.20;4.75;;;;;;;10.65;95.69;100932.91;5017406;28;20042;-67
2021/08/25 04:31:34;;;;;;;8.73;4.50;;;;;;;10.65;95.91;100936.44;5017417;28;20046;-67
2021/08/25 04:34:01;;;;;;;11.20;5.03;;;;;;;10.71;95.91;100941.50;5017267;28;20084;-66
2021/08/25 04:36:28;;;;;;;11.63;5.57;;;;;;;10.66;96.17;100934.63;5017371;28;20050;-67
2021/08/25 04:38:54;;;;;;;8.30;4.65;;;;;;;10.69;96.15;100939.84;5017318;28;20453;-67
2021/08/25 04:41:21;;;;;;;10.65;5.38;;;;;;;10.62;96.36;100936.59;5017192;28;20136;-67
2021/08/25 04:43:48;;;;;;;8.52;4.57;;;;;;;10.58;96.40;100935.03;5016853;28;20045;-67
2021/08/25 04:46:18;;;;;;;10.10;5.10;;;;;;;10.51;96.42;100925.59;5017064;28;20347;-68
2021/08/25 04:48:45;;;;;;;10.52;4.55;;;;;;;10.55;96.67;100940.50;5016203;28;20058;-72
2021/08/25 04:51:13;;;;;;;8.63;5.10;;;;;;;10.59;96.36;100939.41;5049007;28;20169;-67
2021/08/25 04:53:40;;;;;;;9.02;4.85;;;;;;;10.57;96.87;100928.81;5015496;28;20054;-67
2021/08/25 04:56:07;;;;;;;10.48;5.20;;;;;;;10.59;96.53;100932.25;5014744;28;20042;-67
2021/08/25 04:58:35;;;;;;;14.55;5.10;;;;;;;10.63;96.66;100933.00;5014289;28;20046;-67
2021/08/25 05:01:04;;;;;;;10.98;5.80;;;;;;;10.62;97.07;100925.91;5013913;28;20046;-67
2021/08/25 05:03:33;;;;;;;11.18;5.68;;;;;;;10.59;97.09;100920.72;5015237;28;20104;-66
2021/08/25 05:06:11;;;;;;;9.38;5.22;;;;;;;10.56;96.82;100921.75;5007169;28;20528;-66
2021/08/25 05:08:39;;;;;;;17.52;5.15;;;;;;;10.59;96.57;100926.06;4995572;28;20050;-66
2021/08/25 05:11:08;;;;;;;8.65;5.35;;;;;;;10.66;96.88;100926.63;4997052;28;20050;-68
2021/08/25 05:13:37;;;;;;;8.73;5.20;;;;;;;10.68;96.47;100927.44;4997358;28;20049;-68
2021/08/25 05:16:13;;;;;;;8.85;5.10;;;;;;;10.68;96.80;100925.59;5004556;28;20108;-68
2021/08/25 05:18:41;;;;;;;9.07;5.20;;;;;;;10.69;97.54;100924.66;5015394;28;20080;-68
2021/08/25 05:21:09;;;;;;;10.02;5.70;;;;;;;10.68;97.08;100925.59;5015520;28;20779;-66
2021/08/25 05:23:36;;;;;;;9.63;5.40;;;;;;;10.72;96.83;100924.53;5015925;28;20038;-66
2021/08/25 05:26:04;;;;;;;7.85;5.15;;;;;;;10.75;96.35;100917.31;5000102;28;20398;-66
2021/08/25 05:28:32;;;;;;;10.05;6.07;;;;;;;10.90;96.75;100934.38;5009036;28;20046;-66
2021/08/25 05:30:58;;;;;;;11.50;4.75;;;;;;;10.97;96.35;100923.31;5012526;28;20076;-66
2021/08/25 05:33:25;;;;;;;10.13;5.45;;;;;;;11.03;96.45;100930.16;5016435;28;20097;-66
2021/08/25 05:35:52;;;;;;;10.68;5.47;;;;;;;11.09;96.73;100931.63;5014142;28;20100;-68
2021/08/25 05:38:19;;;;;;;13.32;5.80;;;;;;;11.12;96.77;100928.81;5014789;28;20049;-67
2021/08/25 05:40:45;;;;;;;12.00;5.15;;;;;;;11.09;97.22;100924.50;5015725;28;20042;-68
2021/08/25 05:43:12;;;;;;;11.20;5.25;;;;;;;11.11;97.66;100925.28;5014855;28;20045;-73
2021/08/25 05:45:39;;;;;;;14.05;5.50;;;;;;;11.22;97.42;100927.38;5006044;28;20065;-68
2021/08/25 05:48:06;;;;;;;7.93;4.72;;;;;;;11.30;96.77;100935.03;5014080;28;20045;-69
2021/08/25 05:50:33;;;;;;;12.73;5.05;;;;;;;11.37;96.41;100933.75;4998113;28;20046;-69
2021/08/25 05:53:00;;;;;;;15.43;5.15;;;;;;;11.40;96.61;100930.06;5004147;28;20104;-68
2021/08/25 05:55:27;;;;;;;10.07;5.75;;;;;;;11.42;96.04;100930.84;5006324;28;20390;-69
2021/08/25 05:57:53;;;;;;;9.63;6.03;;;;;;;11.49;95.94;100936.75;5014073;28;20042;-71
2021/08/25 06:00:20;;;;;;;9.93;5.13;;;;;;;11.50;95.87;100927.78;5014456;28;20109;-71
2021/08/25 06:02:50;;;;;;;9.15;5.10;;;;;;;11.53;97.13;100933.81;5015550;28;20046;-70
2021/08/25 06:05:18;;;;;;;9.45;5.15;;;;;;;11.64;96.89;100938.59;5015399;28;20042;-70
2021/08/25 06:07:45;;;;;;;8.98;5.10;;;;;;;11.72;96.31;100943.50;5011032;28;20030;-71
2021/08/25 06:10:12;;;;;;;9.70;5.65;;;;;;;11.77;95.86;100941.47;5013993;28;20049;-72
2021/08/25 06:12:39;;;;;;;11.63;6.43;;;;;;;11.80;96.49;100935.09;5012730;28;20054;-72
2021/08/25 06:15:07;;;;;;;11.85;6.45;;;;;;;11.88;95.53;100937.38;5004358;28;20340;-72
2021/08/25 06:17:34;;;;;;;8.65;5.55;;;;;;;11.95;96.11;100941.44;5003791;28;20045;-71
2021/08/25 06:20:01;;;;;;;6.60;5.10;;;;;;;12.01;95.38;100937.56;5015326;28;20049;-71
2021/08/25 06:22:28;;;;;;;11.15;5.90;;;;;;;12.05;96.11;100939.16;5015025;28;20050;-68
2021/08/25 06:24:55;;;;;;;10.75;5.70;;;;;;;12.11;95.58;100932.59;5001958;28;20052;-70
2021/08/25 06:27:24;;;;;;;9.40;5.72;;;;;;;12.15;95.22;100936.84;5015221;28;20121;-70
2021/08/25 06:29:51;;;;;;;8.55;5.45;;;;;;;12.22;96.07;100936.38;5014645;28;20053;-70
2021/08/25 06:32:18;;;;;;;13.32;5.88;;;;;;;12.30;95.47;100941.31;5014747;28;20038;-70
2021/08/25 06:34:45;;;;;;;11.20;5.65;;;;;;;12.32;95.21;100931.38;5015138;28;20054;-70
2021/08/25 06:37:12;;;;;;;14.80;5.93;;;;;;;12.43;94.81;100943.31;5014803;28;20069;-71
2021/08/25 06:39:38;;;;;;;11.38;5.68;;;;;;;12.52;94.06;100941.94;5014951;28;20410;-74
2021/08/25 06:42:05;;;;;;;9.27;4.68;;;;;;;12.58;93.08;100942.44;5015102;28;20038;-69
2021/08/25 06:44:32;;;;;;;12.45;5.20;;;;;;;12.64;92.67;100935.88;5013880;28;20053;-74
2021/08/25 06:46:59;;;;;;;7.75;5.15;;;;;;;12.75;91.33;100928.09;5023872;28;20041;-68
2021/08/25 06:49:25;;;;;;;12.63;5.55;;;;;;;12.86;90.07;100923.94;5014835;28;20075;-68
2021/08/25 06:51:52;;;;;;;18.17;7.60;;;;;;;13.01;90.19;100925.69;5014959;28;20129;-67
2021/08/25 06:54:19;;;;;;;15.00;9.40;;;;;;;13.06;88.91;100920.06;5014329;28;20053;-69
2021/08/25 06:56:46;;;;;;;20.10;9.30;;;;;;;13.11;89.29;100909.94;5046996;28;20042;-68
2021/08/25 06:59:12;;;;;;;20.25;11.60;;;;;;;13.16;89.30;100910.53;5015378;28;20047;-69
2021/08/25 07:01:39;;;;;;;19.63;11.00;;;;;;;13.22;88.93;100908.41;5030336;28;20056;-67
2021/08/25 07:04:06;;;;;;;19.58;11.27;;;;;;;13.36;89.22;100919.19;5015248;28;20436;-68
2021/08/25 07:06:33;;;;;;;22.85;10.63;;;;;;;13.38;89.39;100919.06;5015131;28;20068;-67
2021/08/25 07:09:05;;;;;;;17.98;9.52;;;;;;;13.52;88.55;100926.31;5015192;28;20458;-68
2021/08/25 07:11:33;;;;;;;17.00;10.35;;;;;;;13.60;87.22;100918.66;5014813;28;20050;-67
2021/08/25 07:14:00;;;;;;;24.00;11.35;;;;;;;13.65;86.95;100915.69;5015030;28;20048;-67
2021/08/25 07:16:27;;;;;;;21.23;9.70;;;;;;;13.75;86.73;100918.66;5015041;28;20398;-69
2021/08/25 07:18:54;;;;;;;16.27;9.77;;;;;;;13.75;86.60;100922.22;5013900;28;20419;-67
2021/08/25 07:21:21;;;;;;;15.57;8.63;;;;;;;13.78;86.93;100924.69;5030223;28;20045;-67
2021/08/25 07:23:50;;;;;;;16.70;7.50;;;;;;;13.84;86.76;100918.09;5014909;28;20056;-67
2021/08/25 07:26:17;;;;;;;18.08;7.75;;;;;;;13.93;85.56;100917.50;5029871;28;20088;-70
2021/08/25 07:28:45;;;;;;;20.20;8.15;;;;;;;14.01;85.19;100916.16;4999468;28;20045;-72
2021/08/25 07:31:13;;;;;;;15.60;8.27;;;;;;;14.08;83.63;100925.56;4995240;28;20042;-71
2021/08/25 07:33:40;;;;;;;14.73;6.60;;;;;;;14.15;83.34;100921.50;5004114;28;20062;-70
2021/08/25 07:36:08;;;;;;;14.48;7.15;;;;;;;14.20;82.56;100910.47;5002891;28;20440;-70
2021/08/25 07:38:36;;;;;;;13.63;5.60;;;;;;;14.29;82.98;100917.06;5001269;28;20053;-70
2021/08/25 07:41:03;;;;;;;8.60;4.38;;;;;;;14.36;80.63;100910.34;5000100;28;20117;-71
2021/08/25 07:43:30;;;;;;;13.95;3.97;;;;;;;14.53;80.13;100918.19;5002071;28;20395;-70
2021/08/25 07:45:57;;;;;;;11.80;4.00;;;;;;;14.67;78.05;100919.94;5004497;28;20046;-69
2021/08/25 07:48:23;;;;;;;11.85;4.30;;;;;;;14.64;79.44;100924.66;5012915;28;20383;-70
2021/08/25 07:50:52;;;;;;;6.10;3.53;;;;;;;14.58;80.02;100919.69;5016328;28;20427;-72
2021/08/25 07:53:19;;;;;;;7.68;3.45;;;;;;;14.62;80.65;100918.53;5004834;28;20049;-72
2021/08/25 07:55:46;;;;;;;9.15;3.63;;;;;;;14.73;80.04;100931.25;5009035;28;20042;-70
2021/08/25 07:58:13;;;;;;;7.57;3.38;;;;;;;14.77;79.76;100920.22;5011660;28;20049;-69
2021/08/25 08:00:40;;;;;;;7.07;3.80;;;;;;;14.78;79.30;100916.56;5016273;28;20096;-70
2021/08/25 08:03:07;;;;;;;14.02;3.63;;;;;;;14.81;79.06;100907.44;5006976;28;20042;-70
2021/08/25 08:05:34;;;;;;;9.38;4.20;;;;;;;14.92;79.33;100906.72;5016460;28;20045;-70
2021/08/25 08:08:01;;;;;;;7.82;3.20;;;;;;;14.97;77.29;100904.56;5017751;28;20038;-70
2021/08/25 08:10:28;;;;;;;13.48;3.75;;;;;;;15.02;78.07;100906.94;5017272;28;20057;-70
2021/08/25 08:12:55;;;;;;;12.68;4.78;;;;;;;15.06;79.48;100908.47;5017211;28;20050;-72
2021/08/25 08:15:22;;;;;;;9.95;4.00;;;;;;;15.25;78.65;100907.22;5017400;28;20046;-72
2021/08/25 08:17:49;;;;;;;7.35;3.30;;;;;;;15.44;76.80;100907.66;5016134;28;20595;-74
2021/08/25 08:20:16;;;;;;;10.90;4.13;;;;;;;15.57;77.01;100907.66;5015415;28;20042;-75
2021/08/25 08:22:43;;;;;;;15.25;4.15;;;;;;;15.56;76.56;100918.50;5015570;28;20041;-72
2021/08/25 08:25:10;;;;;;;10.23;4.00;;;;;;;15.48;76.41;100911.84;5003840;28;20050;-71
2021/08/25 08:27:37;;;;;;;13.75;4.40;;;;;;;15.56;77.71;100922.09;5016894;28;20058;-68
2021/08/25 08:30:05;;;;;;;7.10;3.97;;;;;;;15.53;76.12;100914.22;5016793;28;20050;-68
2021/08/25 08:32:31;;;;;;;11.85;3.67;;;;;;;15.68;76.22;100924.88;5017159;28;20060;-71
2021/08/25 08:34:58;;;;;;;8.30;3.97;;;;;;;15.71;77.61;100919.28;5017074;28;20061;-70
2021/08/25 08:37:29;;;;;;;10.07;4.10;;;;;;;15.81;77.03;100917.66;5006750;28;20046;-69
2021/08/25 08:39:56;;;;;;;9.88;4.28;;;;;;;16.06;74.93;100924.00;5016418;28;20065;-68
2021/08/25 08:42:34;;;;;;;9.07;5.20;;;;;;;16.17;75.33;100925.06;5016510;28;20045;-68
2021/08/25 08:45:04;;;;;;;7.65;3.90;;;;;;;16.20;76.01;100924.84;5016811;28;20052;-70
2021/08/25 08:47:31;;;;;;;11.10;4.78;;;;;;;16.21;75.18;100911.25;5016738;28;20121;-68
2021/08/25 08:49:59;;;;;;;9.43;4.00;;;;;;;16.25;74.68;100911.91;5017133;28;20408;-69
2021/08/25 08:52:27;;;;;;;11.25;5.18;;;;;;;16.36;73.90;100903.91;5017115;28;20046;-69
2021/08/25 08:54:57;;;;;;;7.57;4.10;;;;;;;16.38;74.61;100896.56;5016280;28;20450;-69
2021/08/25 08:57:24;;;;;;;9.55;4.45;;;;;;;16.55;73.95;100897.13;5016038;28;20424;-69
2021/08/25 08:59:51;;;;;;;11.52;4.13;;;;;;;16.66;73.17;100893.63;5015838;28;20058;-68
2021/08/25 09:02:44;;;;;;;9.65;4.10;;;;;;;16.77;73.25;100879.34;5015821;28;20120;-69
2021/08/25 09:05:17;;;;;;;14.23;4.70;;;;;;;17.02;69.73;100896.38;5015760;28;20119;-70
2021/08/25 09:07:54;;;;;;;9.93;4.10;;;;;;;17.05;70.08;100894.28;5015659;28;20052;-69
2021/08/25 09:10:24;;;;;;;8.50;3.60;;;;;;;17.09;68.86;100886.81;5016906;28;20046;-69
2021/08/25 09:12:58;;;;;;;11.20;4.00;;;;;;;17.38;68.61;100887.25;5016767;28;20042;-70
2021/08/25 09:15:27;;;;;;;9.05;4.00;;;;;;;17.43;70.16;100884.19;5016877;28;20061;-69
2021/08/25 09:17:56;;;;;;;12.18;4.60;;;;;;;17.41;68.44;100883.47;5031997;28;20096;-69
2021/08/25 09:20:23;;;;;;;10.43;4.50;;;;;;;17.50;68.56;100881.88;5016619;28;20081;-70
2021/08/25 09:23:20;;;;;;;9.45;3.67;;;;;;;17.58;66.96;100883.94;5016393;28;20045;-68
2021/08/25 09:25:50;;;;;;;8.80;3.83;;;;;;;17.47;67.31;100892.91;5020784;28;20058;-69
2021/08/25 09:28:19;;;;;;;7.57;4.07;;;;;;;17.48;70.01;100895.50;5016560;28;20038;-69
2021/08/25 09:31:01;;;;;;;15.10;3.92;;;;;;;17.56;68.41;100894.91;5015288;28;20050;-70
2021/08/25 09:33:37;;;;;;;9.23;4.30;;;;;;;17.70;68.23;100893.78;5016525;28;20042;-69
2021/08/25 09:36:06;;;;;;;13.73;4.13;;;;;;;17.80;67.53;100901.16;5016223;28;20181;-70
2021/08/25 09:38:35;;;;;;;12.30;4.25;;;;;;;17.90;68.85;100896.72;5016311;28;20046;-70
2021/08/25 09:41:10;;;;;;;7.78;3.92;;;;;;;18.04;67.12;100893.75;5018799;28;20372;-68
2021/08/25 09:43:42;;;;;;;10.27;3.92;;;;;;;18.10;65.28;100886.19;5016158;28;20112;-70
2021/08/25 09:46:19;;;;;;;11.55;3.90;;;;;;;18.19;65.73;100877.31;5016006;28;20060;-69
2021/08/25 09:48:55;;;;;;;8.60;4.00;;;;;;;18.28;63.58;100875.72;4996408;28;20050;-70
2021/08/25 09:51:25;;;;;;;8.27;3.80;;;;;;;18.30;63.08;100868.34;5012013;28;20041;-70
2021/08/25 09:54:04;;;;;;;12.90;4.50;;;;;;;18.42;62.35;100861.06;5016092;28;20064;-70
2021/08/25 09:56:34;;;;;;;7.47;4.13;;;;;;;18.50;62.46;100874.78;5016000;28;20096;-68
2021/08/25 09:59:02;;;;;;;6.63;3.30;;;;;;;18.61;62.51;100868.47;5014875;28;20141;-70
2021/08/25 10:01:29;;;;;;;6.90;3.40;;;;;;;18.75;61.58;100872.75;5015983;28;20046;-70
2021/08/25 10:04:03;;;;;;;9.15;3.45;;;;;;;18.75;59.95;100875.44;5014882;28;20069;-71
2021/08/25 10:06:30;;;;;;;6.63;3.60;;;;;;;18.80;59.72;100859.66;5014868;28;20128;-69
2021/08/25 10:08:57;;;;;;;14.05;3.42;;;;;;;18.96;61.25;100859.22;5015832;28;20119;-69
2021/08/25 10:11:29;;;;;;;7.80;3.33;;;;;;;19.17;57.99;100871.06;5015707;28;20057;-69
2021/08/25 10:13:57;;;;;;;7.95;3.72;;;;;;;19.21;59.52;100881.50;5014881;28;20136;-69
2021/08/25 10:16:52;;;;;;;6.28;3.45;;;;;;;19.32;59.64;100879.69;5014464;28;20443;-69
2021/08/25 10:19:24;;;;;;;6.32;3.10;;;;;;;19.41;56.37;100868.91;5014695;28;20057;-69
2021/08/25 10:21:53;;;;;;;7.22;3.58;;;;;;;19.46;57.39;100867.66;5015472;28;20042;-69
2021/08/25 10:24:21;;;;;;;6.72;3.15;;;;;;;19.54;57.09;100862.44;5015532;28;20046;-69
2021/08/25 10:26:59;;;;;;;10.23;3.70;;;;;;;19.67;56.16;100856.81;5030814;28;20498;-69
2021/08/25 10:29:27;;;;;;;8.43;3.55;;;;;;;19.85;56.28;100854.31;5015497;28;20100;-69
2021/08/25 10:31:54;;;;;;;5.07;3.53;;;;;;;20.05;53.51;100857.09;5015328;28;20446;-68
2021/08/25 10:34:24;;;;;;;8.02;3.90;;;;;;;20.12;55.04;100852.84;5015354;28;20455;-69
2021/08/25 10:36:52;;;;;;;5.28;3.22;;;;;;;20.20;51.52;100847.56;5015391;28;20046;-69
2021/08/25 10:39:36;;;;;;;7.22;3.47;;;;;;;20.24;51.32;100841.84;5015449;28;20501;-69
2021/08/25 10:42:04;;;;;;;8.00;3.20;;;;;;;20.28;51.15;100843.28;5015211;28;20431;-70
2021/08/25 10:44:40;;;;;;;5.55;2.95;;;;;;;20.37;51.86;100847.84;5030901;28;20382;-68
2021/08/25 10:47:12;;;;;;;8.52;3.58;;;;;;;20.39;51.16;100845.03;5014974;28;20050;-70
2021/08/25 10:49:41;;;;;;;9.00;3.33;;;;;;;20.43;49.33;100835.63;5015267;28;20433;-68
2021/08/25 10:52:14;;;;;;;6.47;3.10;;;;;;;20.61;52.03;100847.44;5015199;28;20038;-69
2021/08/25 10:54:44;;;;;;;6.40;3.55;;;;;;;20.81;51.19;100833.03;5015246;28;20073;-68
2021/08/25 10:57:29;;;;;;;7.22;3.10;;;;;;;20.94;48.72;100828.19;5015125;28;20096;-68
2021/08/25 11:00:08;;;;;;;;;;;;;;;21.03;48.30;100823.75;5015828;28;20046;-69
2021/08/25 11:02:39;;;;;;;6.60;3.22;;;;;;;21.08;49.25;100818.72;5015034;28;19992;-70
2021/08/25 11:05:07;;;;;;;6.93;3.53;;;;;;;21.30;47.74;100817.53;5015082;28;20042;-68
2021/08/25 11:07:42;;;;;;;4.65;3.20;;;;;;;21.39;49.61;100804.06;5015124;28;20042;-69
2021/08/25 11:10:09;;;;;;;7.53;3.65;;;;;;;21.28;48.02;100792.38;5015072;28;20428;-69
2021/08/25 11:12:44;;;;;;;8.38;3.20;;;;;;;21.65;47.81;100792.50;5014900;28;20050;-70
2021/08/25 11:15:10;;;;;;;5.45;3.35;;;;;;;21.73;46.20;100789.91;5014909;28;20054;-70
2021/08/25 11:17:41;;;;;;;6.72;3.40;;;;;;;21.64;47.26;100790.78;5017465;28;20045;-70
2021/08/25 11:20:09;;;;;;;13.73;4.03;;;;;;;21.63;47.10;100783.66;5018867;28;20328;-69
2021/08/25 11:22:44;;;;;;;12.65;3.20;;;;;;;21.59;45.72;100783.09;5018476;28;20038;-70
2021/08/25 11:25:12;;;;;;;6.75;3.45;;;;;;;21.66;44.44;100783.34;5019054;28;20038;-70
2021/08/25 11:27:46;;;;;;;8.25;4.43;;;;;;;21.72;44.90;100777.34;5018585;28;20042;-69